Time;durP1;ratioP1;P1;durP2;ratioP2;P2;SDS_P1;SDS_P2;PMS_P1;PMS_P2;Temp;Humidity;BMP_temperature;BMP_pressure;BME280_temperature;BME280_humidity;BME280_pressure;Samples;Min_cycle;Max_cycle;Signal;HPM_P1;HPM_P2
2021/06/09 00:02:24;;;;;;;;;6.00;6.00;;;;;22.07;58.94;98668.91;4877620;28;102274;-93
2021/06/09 00:04:52;;;;;;;;;6.33;6.33;;;;;22.08;59.04;98664.22;4895201;28;102400;-93
2021/06/09 00:07:19;;;;;;;;;7.33;7.00;;;;;22.08;58.89;98669.75;4881911;28;104134;-93
2021/06/09 00:09:49;;;;;;;;;7.33;7.00;;;;;22.04;59.27;98666.72;4887247;28;102208;-92
2021/06/09 00:12:16;;;;;;;;;8.33;7.00;;;;;22.02;59.21;98660.63;4868481;28;104164;-92
2021/06/09 00:14:43;;;;;;;;;11.00;8.33;;;;;22.03;58.73;98659.53;4884410;28;103798;-92
2021/06/09 00:17:10;;;;;;;;;8.00;8.00;;;;;22.00;58.92;98653.75;4849039;28;110673;-92
2021/06/09 00:19:38;;;;;;;;;8.00;7.00;;;;;22.01;58.58;98663.69;4840450;28;102675;-92
2021/06/09 00:22:16;;;;;;;;;7.67;6.00;;;;;22.01;58.89;98664.50;4802438;28;102367;-92
2021/06/09 00:24:55;;;;;;;;;7.00;7.00;;;;;22.01;58.56;98666.44;4902564;28;102686;-92
2021/06/09 00:27:28;;;;;;;;;10.67;9.67;;;;;21.99;58.68;98661.19;4904699;28;104565;-92
2021/06/09 00:30:02;;;;;;;;;8.33;8.33;;;;;21.97;58.27;98655.16;4911966;28;102241;-91
2021/06/09 00:32:38;;;;;;;;;7.00;7.00;;;;;21.95;58.00;98659.25;4879762;28;104072;-92
2021/06/09 00:35:11;;;;;;;;;7.67;6.67;;;;;21.95;57.84;98662.84;4885429;28;104174;-92
2021/06/09 00:37:39;;;;;;;;;8.00;8.00;;;;;21.94;58.58;98663.94;4939116;28;103514;-92
2021/06/09 00:40:08;;;;;;;;;8.33;8.00;;;;;21.94;58.25;98660.34;4939994;28;102570;-92
2021/06/09 00:42:35;;;;;;;;;10.00;8.33;;;;;21.91;58.20;98658.94;4925536;28;103347;-91
2021/06/09 00:45:03;;;;;;;;;11.67;9.67;;;;;21.90;57.95;98651.78;4927597;28;102437;-92
2021/06/09 00:47:31;;;;;;;;;10.00;8.67;;;;;21.91;57.56;98652.63;4925905;28;104100;-92
2021/06/09 00:49:58;;;;;;;;;10.00;8.67;;;;;21.89;57.55;98649.28;4930727;28;102287;-92
2021/06/09 00:52:26;;;;;;;;;10.67;8.67;;;;;21.88;57.21;98665.00;4921633;28;102395;-92
2021/06/09 00:54:53;;;;;;;;;10.00;8.67;;;;;21.88;58.01;98658.69;4926557;28;102117;-93
2021/06/09 00:57:21;;;;;;;;;7.67;7.33;;;;;21.85;57.36;98662.78;4929397;28;104145;-93
2021/06/09 00:59:48;;;;;;;;;7.67;7.67;;;;;21.85;57.15;98646.28;4911818;28;102158;-92
2021/06/09 01:02:15;;;;;;;;;9.67;9.33;;;;;21.84;57.00;98658.38;4925629;28;104265;-92
2021/06/09 01:04:43;;;;;;;;;8.67;8.00;;;;;21.83;57.02;98655.91;4911452;28;102460;-92
2021/06/09 01:07:12;;;;;;;;;8.33;8.33;;;;;21.84;57.11;98657.56;4920329;28;104348;-92
2021/06/09 01:09:39;;;;;;;;;7.33;7.00;;;;;21.82;55.91;98663.34;4904166;28;102508;-92
2021/06/09 01:12:07;;;;;;;;;10.67;8.00;;;;;21.80;56.37;98655.34;4902450;28;103673;-92
2021/06/09 01:14:34;;;;;;;;;10.00;10.00;;;;;21.79;56.33;98661.94;4908128;28;104277;-93
2021/06/09 01:17:01;;;;;;;;;10.33;9.00;;;;;21.77;55.53;98652.31;4927795;28;104141;-93
2021/06/09 01:19:30;;;;;;;;;10.00;9.00;;;;;21.79;56.12;98655.63;4926231;28;102273;-93
2021/06/09 01:21:57;;;;;;;;;9.00;9.00;;;;;21.77;55.47;98655.06;4906221;28;103091;-92
2021/06/09 01:24:24;;;;;;;;;10.33;8.33;;;;;21.76;56.16;98653.41;4892778;28;103285;-92
2021/06/09 01:26:51;;;;;;;;;10.33;10.00;;;;;21.74;55.95;98647.38;4905682;28;104072;-92
2021/06/09 01:29:18;;;;;;;;;8.33;8.33;;;;;21.74;55.54;98647.38;4899097;28;104321;-92
2021/06/09 01:31:45;;;;;;;;;11.00;9.00;;;;;21.74;55.73;98650.13;4912184;28;102479;-92
2021/06/09 01:34:13;;;;;;;;;10.00;8.00;;;;;21.71;55.57;98648.72;4924125;28;102180;-92
2021/06/09 01:36:41;;;;;;;;;9.00;8.00;;;;;21.70;55.08;98649.00;4903884;28;104197;-92
2021/06/09 01:39:10;;;;;;;;;10.33;8.33;;;;;21.70;55.23;98646.25;4925050;28;102372;-92
2021/06/09 01:41:47;;;;;;;;;9.33;9.00;;;;;21.64;55.14;98642.66;4926329;28;102450;-92
2021/06/09 01:44:14;;;;;;;;;9.33;8.67;;;;;21.68;55.06;98642.94;4924932;28;102314;-92
2021/06/09 01:46:42;;;;;;;;;10.67;9.33;;;;;21.66;55.22;98642.38;4925908;28;104318;-92
2021/06/09 01:49:13;;;;;;;;;10.00;10.00;;;;;21.66;54.86;98647.88;4889048;28;102419;-92
2021/06/09 01:51:40;;;;;;;;;9.67;9.33;;;;;21.62;55.16;98649.50;4922216;28;102251;-92
2021/06/09 01:54:07;;;;;;;;;9.33;8.67;;;;;21.62;54.68;98650.34;4926786;28;102419;-92
2021/06/09 01:56:35;;;;;;;;;11.33;10.00;;;;;21.59;54.55;98642.63;4932112;28;104078;-92
2021/06/09 01:59:15;;;;;;;;;9.67;9.00;;;;;21.60;54.42;98643.47;4923449;28;102444;-92
2021/06/09 02:01:42;;;;;;;;;11.00;10.67;;;;;21.58;55.20;98640.16;4910529;28;102125;-92
2021/06/09 02:04:10;;;;;;;;;10.00;9.67;;;;;21.57;54.56;98642.06;4899428;28;102440;-92
2021/06/09 02:06:41;;;;;;;;;9.00;9.00;;;;;21.57;55.04;98646.78;4888056;28;104019;-92
2021/06/09 02:09:09;;;;;;;;;10.00;9.33;;;;;21.55;54.24;98648.97;4919500;28;102548;-93
2021/06/09 02:11:40;;;;;;;;;9.33;8.67;;;;;21.55;54.51;98651.72;4885839;28;103511;-92
2021/06/09 02:14:08;;;;;;;;;10.00;9.67;;;;;21.52;54.48;98653.09;4890723;28;102245;-92
2021/06/09 02:16:36;;;;;;;;;14.67;11.33;;;;;21.51;53.88;98643.19;4930055;28;104050;-92
2021/06/09 02:19:04;;;;;;;;;9.33;9.00;;;;;21.52;53.94;98653.09;4908389;28;102254;-92
2021/06/09 02:21:32;;;;;;;;;8.00;8.00;;;;;21.53;53.30;98659.38;4922112;28;102135;-92
2021/06/09 02:23:59;;;;;;;;;10.33;10.33;;;;;21.51;53.62;98656.09;4928453;28;102276;-93
2021/06/09 02:26:26;;;;;;;;;8.67;8.33;;;;;21.50;53.82;98646.19;4907055;28;104393;-92
2021/06/09 02:28:54;;;;;;;;;12.00;9.00;;;;;21.50;53.95;98652.53;4898857;28;102357;-93
2021/06/09 02:31:21;;;;;;;;;9.33;8.00;;;;;21.48;53.99;98643.69;4906301;28;102214;-92
2021/06/09 02:33:48;;;;;;;;;9.67;9.67;;;;;21.49;53.16;98650.03;4933655;28;102106;-92
2021/06/09 02:36:15;;;;;;;;;12.00;9.67;;;;;21.47;53.24;98649.50;4900513;28;104383;-92
2021/06/09 02:38:42;;;;;;;;;10.00;9.33;;;;;21.46;53.82;98650.56;4903337;28;102485;-92
2021/06/09 02:41:09;;;;;;;;;10.67;10.67;;;;;21.43;53.19;98651.97;4927685;28;102009;-93
2021/06/09 02:43:36;;;;;;;;;11.67;11.00;;;;;21.44;53.17;98652.75;4929923;28;102232;-92
2021/06/09 02:46:24;;;;;;;;;9.33;9.33;;;;;21.45;53.24;98654.41;4928826;28;104117;-92
2021/06/09 02:48:57;;;;;;;;;11.33;10.33;;;;;21.44;53.40;98652.75;4898134;28;103664;-92
2021/06/09 02:51:25;;;;;;;;;12.67;12.00;;;;;21.44;52.87;98658.25;4902704;28;102192;-92
2021/06/09 02:54:04;;;;;;;;;8.67;8.67;;;;;21.41;52.98;98653.31;4906495;28;102468;-92
2021/06/09 02:57:01;;;;;;;;;12.67;9.00;;;;;21.41;53.06;98656.06;4910823;28;104981;-92
2021/06/09 02:59:43;;;;;;;;;10.33;9.00;;;;;21.40;53.10;98659.91;4922273;28;104189;-92
2021/06/09 03:02:18;;;;;;;;;10.67;10.00;;;;;21.36;52.98;98652.19;4909710;28;102154;-91
2021/06/09 03:05:08;;;;;;;;;10.00;8.33;;;;;21.35;52.72;98661.53;4903381;28;103457;-92
2021/06/09 03:07:44;;;;;;;;;9.33;9.00;;;;;21.35;52.51;98657.97;4913134;28;104898;-92
2021/06/09 03:10:22;;;;;;;;;12.33;10.00;;;;;21.34;52.50;98654.38;4924103;28;102592;-92
2021/06/09 03:13:01;;;;;;;;;9.00;8.67;;;;;21.34;52.38;98648.88;4921873;28;102823;-92
2021/06/09 03:15:50;;;;;;;;;11.00;9.00;;;;;21.30;53.35;98652.44;4908465;28;104295;-92
2021/06/09 03:18:40;;;;;;;;;11.00;9.33;;;;;21.30;52.70;98655.19;4903112;28;105322;-91
2021/06/09 03:21:11;;;;;;;;;11.67;11.00;;;;;21.29;53.29;98654.38;4895983;28;102065;-91
2021/06/09 03:24:02;;;;;;;;;12.33;8.33;;;;;21.29;53.18;98656.31;4905974;28;102934;-93
2021/06/09 03:26:59;;;;;;;;;8.00;7.67;;;;;21.28;53.12;98649.97;4897203;28;102587;-92
2021/06/09 03:29:48;;;;;;;;;10.33;9.67;;;;;21.28;53.03;98654.66;4907753;28;105858;-92
2021/06/09 03:32:37;;;;;;;;;11.00;9.00;;;;;21.25;51.96;98656.00;4917589;28;102206;-92
2021/06/09 03:35:08;;;;;;;;;11.00;10.67;;;;;21.24;52.52;98659.84;4908387;28;102371;-92
2021/06/09 03:37:44;;;;;;;;;10.33;9.67;;;;;21.22;52.40;98662.03;4906893;28;103326;-92
2021/06/09 03:40:17;;;;;;;;;9.00;9.00;;;;;21.23;52.00;98655.44;4927984;28;104741;-92
2021/06/09 03:42:47;;;;;;;;;8.00;8.00;;;;;21.21;52.22;98654.88;4931013;28;101966;-92
2021/06/09 03:45:17;;;;;;;;;10.67;9.67;;;;;21.20;51.82;98653.25;4925609;28;102077;-92
2021/06/09 03:47:44;;;;;;;;;12.00;10.00;;;;;21.20;52.70;98653.25;4906769;28;102608;-92
2021/06/09 03:50:13;;;;;;;;;10.33;8.00;;;;;21.20;52.60;98658.75;4881255;28;104468;-92
2021/06/09 03:52:40;;;;;;;;;9.67;8.33;;;;;21.19;51.92;98661.75;4891129;28;102448;-91
2021/06/09 03:55:08;;;;;;;;;6.67;6.67;;;;;21.19;52.23;98654.34;4898596;28;102255;-92
2021/06/09 03:57:36;;;;;;;;;11.67;10.33;;;;;21.19;52.27;98656.25;4916531;28;102035;-92
2021/06/09 04:00:04;;;;;;;;;8.67;8.33;;;;;21.20;52.19;98666.16;4913537;28;103480;-92
2021/06/09 04:02:31;;;;;;;;;8.67;8.67;;;;;21.18;52.77;98660.91;4927414;28;103903;-92
2021/06/09 04:04:59;;;;;;;;;11.00;10.67;;;;;21.17;52.58;98664.75;4906774;28;102528;-91
2021/06/09 04:07:27;;;;;;;;;9.67;9.00;;;;;21.15;52.50;98666.13;4907306;28;102905;-92
2021/06/09 04:09:55;;;;;;;;;10.00;9.00;;;;;21.16;52.19;98670.53;4900520;28;104577;-92
2021/06/09 04:12:22;;;;;;;;;9.33;9.33;;;;;21.16;52.67;98665.88;4896419;28;102319;-92
2021/06/09 04:14:51;;;;;;;;;8.00;8.00;;;;;21.15;51.96;98668.88;4923229;28;102046;-92
2021/06/09 04:17:22;;;;;;;;;9.33;9.33;;;;;21.15;52.39;98669.72;4901263;28;102046;-91
2021/06/09 04:19:49;;;;;;;;;10.33;8.67;;;;;21.15;52.04;98666.97;4911086;28;104104;-92
2021/06/09 04:22:16;;;;;;;;;8.67;8.00;;;;;21.15;52.02;98671.63;4906905;28;102846;-91
2021/06/09 04:24:43;;;;;;;;;10.00;8.67;;;;;21.14;52.20;98679.06;4908111;28;102165;-92
2021/06/09 04:27:14;;;;;;;;;9.67;8.00;;;;;21.14;51.75;98673.56;4893315;28;102793;-92
2021/06/09 04:29:42;;;;;;;;;8.33;8.00;;;;;21.13;52.02;98674.66;4925042;28;104256;-91
2021/06/09 04:32:09;;;;;;;;;9.33;8.00;;;;;21.12;51.66;98683.16;4902420;28;103080;-91
2021/06/09 04:34:50;;;;;;;;;9.00;9.00;;;;;21.10;51.62;98669.66;4900463;28;103623;-91
2021/06/09 04:37:22;;;;;;;;;11.00;9.33;;;;;21.10;51.69;98683.41;4925948;28;102969;-91
2021/06/09 04:39:49;;;;;;;;;9.00;8.67;;;;;21.10;51.61;98680.66;4913389;28;104125;-92
2021/06/09 04:42:17;;;;;;;;;9.33;8.00;;;;;21.10;51.81;98680.66;4906188;28;103893;-91
2021/06/09 04:44:44;;;;;;;;;8.00;8.00;;;;;21.08;51.46;98677.34;4909980;28;102588;-91
2021/06/09 04:47:11;;;;;;;;;9.00;9.00;;;;;21.11;52.10;98681.47;4925115;28;102555;-91
2021/06/09 04:49:43;;;;;;;;;13.33;10.00;;;;;21.10;52.10;98675.16;4924137;28;104139;-92
2021/06/09 04:52:11;;;;;;;;;12.33;9.33;;;;;21.11;51.14;98681.47;4911710;28;104312;-91
2021/06/09 04:54:40;;;;;;;;;10.67;10.00;;;;;21.09;51.44;98681.75;4906541;28;102502;-91
2021/06/09 04:57:07;;;;;;;;;14.00;12.67;;;;;21.10;51.79;98686.16;4899201;28;102488;-91
2021/06/09 04:59:34;;;;;;;;;9.00;9.00;;;;;21.09;51.02;98684.50;4893895;28;104138;-91
2021/06/09 05:02:02;;;;;;;;;9.33;8.67;;;;;21.09;51.18;98684.50;4905777;28;103713;-91
2021/06/09 05:04:29;;;;;;;;;11.00;10.67;;;;;21.09;51.20;98676.25;4910567;28;102272;-91
2021/06/09 05:06:56;;;;;;;;;10.00;9.00;;;;;21.10;51.28;98675.16;4921046;28;102265;-91
2021/06/09 05:09:27;;;;;;;;;9.00;7.33;;;;;21.08;50.95;98674.59;4913191;28;104367;-91
2021/06/09 05:12:12;;;;;;;;;10.67;10.67;;;;;21.08;50.98;98674.59;4899837;28;103812;-91
2021/06/09 05:14:50;;;;;;;;;10.00;8.67;;;;;21.08;51.40;98682.84;4910432;28;102233;-92
2021/06/09 05:17:19;;;;;;;;;9.00;7.00;;;;;21.10;50.76;98669.66;4894964;28;102782;-91
2021/06/09 05:19:48;;;;;;;;;9.67;7.33;;;;;21.09;51.07;98670.75;4911500;28;104145;-91
2021/06/09 05:22:25;;;;;;;;;7.33;7.00;;;;;21.07;50.90;98681.19;4911723;28;103954;-91
2021/06/09 05:24:53;;;;;;;;;10.67;10.67;;;;;21.08;51.22;98682.00;4910442;28;102264;-92
2021/06/09 05:27:21;;;;;;;;;9.33;7.67;;;;;21.08;51.26;98677.34;4913362;28;104069;-91
2021/06/09 05:29:48;;;;;;;;;9.33;7.33;;;;;21.08;50.71;98688.34;4906541;28;104280;-91
2021/06/09 05:32:16;;;;;;;;;10.67;9.33;;;;;21.07;50.92;98692.19;4901761;28;102583;-91
2021/06/09 12:00:09;;;;;;;;;6.00;6.00;;;;;23.42;48.71;98635.88;5019155;27;103792;-89
2021/06/09 12:02:50;;;;;;;;;6.00;6.00;;;;;23.44;48.87;98652.19;4933535;28;102117;-91
2021/06/09 12:05:33;;;;;;;;;7.33;5.67;;;;;23.38;48.84;98659.63;4992700;28;103649;-92
2021/06/09 12:08:14;;;;;;;;;8.33;6.33;;;;;23.33;49.15;98653.31;5009324;28;102023;-90
2021/06/09 12:10:41;;;;;;;;;7.33;7.00;;;;;23.21;49.46;98647.28;5017127;28;101932;-92
2021/06/09 12:13:28;;;;;;;;;6.67;5.67;;;;;23.14;49.40;98642.88;4941788;28;102399;-91
2021/06/09 12:16:18;;;;;;;;;8.00;8.00;;;;;23.13;49.19;98644.03;5009691;27;108112;-92
2021/06/09 12:18:59;;;;;;;;;7.00;6.67;;;;;23.11;49.51;98654.50;4947192;28;102778;-91
2021/06/09 12:21:43;;;;;;;;;7.00;6.00;;;;;23.02;49.52;98636.88;5014020;27;102297;-91
2021/06/09 12:24:10;;;;;;;;;5.33;5.33;;;;;23.11;49.73;98654.50;5011101;28;102014;-91
2021/06/09 12:27:11;;;;;;;;;5.33;5.33;;;;;22.99;49.71;98637.44;5006081;28;103659;-91
2021/06/09 12:29:41;;;;;;;;;7.00;6.00;;;;;22.94;49.85;98629.19;5014194;28;101177;-92
2021/06/09 12:32:31;;;;;;;;;5.00;5.00;;;;;22.92;50.01;98636.09;5008704;28;101717;-91
2021/06/09 12:35:16;;;;;;;;;6.67;6.00;;;;;23.03;49.89;98643.22;5003678;28;102029;-92
2021/06/09 12:38:07;;;;;;;;;7.33;7.33;;;;;23.00;50.09;98652.91;4944926;28;106637;-91
2021/06/09 12:40:52;;;;;;;;;5.33;5.33;;;;;22.99;50.00;98634.69;4977573;28;101735;-91
2021/06/09 12:43:45;;;;;;;;;7.00;7.00;;;;;22.91;49.94;98629.75;4985586;28;101869;-90
2021/06/09 12:46:21;;;;;;;;;7.00;7.00;;;;;22.91;50.15;98629.75;4982285;28;101902;-91
2021/06/09 12:48:59;;;;;;;;;5.67;5.00;;;;;22.88;49.98;98624.78;4978830;28;103791;-91
2021/06/09 12:51:45;;;;;;;;;6.00;6.00;;;;;22.83;50.26;98613.75;4983444;28;101330;-91
2021/06/09 12:54:20;;;;;;;;;5.33;5.33;;;;;22.83;50.34;98608.25;4983962;28;102328;-89
2021/06/09 12:56:56;;;;;;;;;4.00;4.00;;;;;22.79;50.01;98607.16;4990588;28;101819;-91
2021/06/09 12:59:40;;;;;;;;;6.33;6.33;;;;;22.88;49.87;98615.66;4976537;28;102182;-91
2021/06/09 13:02:28;;;;;;;;;6.33;6.33;;;;;22.88;50.26;98602.72;4907490;28;101548;-91
2021/06/09 13:05:01;;;;;;;;;5.67;5.00;;;;;22.83;50.11;98601.94;4991471;28;102793;-91
2021/06/09 13:07:49;;;;;;;;;6.33;5.00;;;;;22.93;50.19;98613.72;4972628;28;101445;-91
2021/06/09 13:10:34;;;;;;;;;6.00;6.00;;;;;22.83;50.08;98593.66;4913535;28;106205;-89
2021/06/09 13:13:30;;;;;;;;;4.33;4.33;;;;;22.95;50.06;98614.28;4956425;28;102152;-91
2021/06/09 13:16:05;;;;;;;;;5.00;5.00;;;;;22.96;50.11;98613.19;4910066;28;101902;-92
2021/06/09 13:18:49;;;;;;;;;5.00;5.00;;;;;23.02;50.24;98617.56;4969551;28;101354;-91
2021/06/09 13:21:29;;;;;;;;;7.00;6.33;;;;;23.04;50.13;98618.13;4959030;28;107447;-91
2021/06/09 13:24:15;;;;;;;;;3.67;3.67;;;;;23.05;50.04;98616.19;4969974;28;101411;-91
2021/06/09 13:27:09;;;;;;;;;5.00;5.00;;;;;23.07;50.02;98605.69;4915273;28;102692;-91
2021/06/09 13:29:55;;;;;;;;;3.33;3.33;;;;;23.02;50.08;98592.75;4954054;28;101379;-91
2021/06/09 13:32:42;;;;;;;;;5.67;5.67;;;;;23.10;49.88;98600.44;4968921;28;101804;-91
2021/06/09 13:35:24;;;;;;;;;4.67;4.67;;;;;23.12;49.92;98600.97;4955423;28;101834;-90
2021/06/09 13:38:02;;;;;;;;;4.33;4.00;;;;;23.09;49.79;98585.00;4909145;28;102015;-91
2021/06/09 13:40:39;;;;;;;;;5.00;4.33;;;;;23.10;49.92;98594.91;4948475;28;101377;-91
2021/06/09 13:43:14;;;;;;;;;4.33;4.00;;;;;23.20;49.96;98587.69;4966349;28;109206;-90
2021/06/09 13:46:04;;;;;;;;;4.00;4.00;;;;;23.14;49.69;98582.19;4872521;28;108719;-90
2021/06/09 13:48:48;;;;;;;;;6.00;5.00;;;;;23.11;49.88;98563.47;4966410;28;101886;-90
2021/06/09 13:51:23;;;;;;;;;5.00;5.00;;;;;23.18;49.81;98570.63;4950407;28;101865;-89
2021/06/09 13:54:09;;;;;;;;;4.33;4.33;;;;;23.26;49.54;98575.53;4952523;28;103827;-89
2021/06/09 13:56:46;;;;;;;;;4.00;4.00;;;;;23.17;49.62;98566.22;4958633;28;103315;-89
2021/06/09 13:59:30;;;;;;;;;6.00;4.00;;;;;23.26;49.66;98570.03;4946384;28;102167;-88
2021/06/09 14:02:20;;;;;;;;;5.00;5.00;;;;;23.25;49.73;98565.59;4886429;28;102206;-89
2021/06/09 14:05:22;;;;;;;;;4.67;4.67;;;;;23.30;49.63;98563.66;4867682;28;107997;-89
2021/06/09 14:08:09;;;;;;;;;4.67;4.67;;;;;23.32;49.51;98549.56;4873368;28;102062;-91
2021/06/09 14:10:52;;;;;;;;;5.00;4.00;;;;;23.41;49.68;98554.22;4832381;28;102390;-90
2021/06/09 14:13:51;;;;;;;;;;;;;;;;;;;;;
2021/06/09 14:16:51;;;;;;;;;5.00;4.33;;;;;23.37;49.29;98539.31;4732976;28;106663;-89
2021/06/09 14:20:24;;;;;;;;;;;;;;;;;;;;;
2021/06/09 14:23:30;;;;;;;;;4.67;4.67;;;;;23.48;49.38;98545.63;4605160;28;102464;-89
2021/06/09 14:26:55;;;;;;;;;;;;;;;;;;;;;
2021/06/09 14:30:26;;;;;;;;;5.33;5.33;;;;;23.53;49.05;98531.81;4695137;28;107086;-90
2021/06/09 14:37:24;;;;;;;;;6.33;5.00;;;;;23.71;48.98;98555.97;4735302;28;101882;-90
2021/06/09 14:40:45;;;;;;;;;5.67;5.00;;;;;23.60;48.83;98537.81;4640167;28;102000;-89
2021/06/09 14:43:46;;;;;;;;;3.00;3.00;;;;;23.66;49.11;98531.16;4642108;28;107034;-90
2021/06/09 14:50:30;;;;;;;;;5.00;4.00;;;;;23.75;48.88;98543.22;4638861;29;102425;-90
2021/06/09 14:53:21;;;;;;;;;5.00;5.00;;;;;23.74;48.80;98533.28;4682287;28;102857;-91
2021/06/09 14:56:15;;;;;;;;;6.67;6.00;;;;;23.86;48.70;98542.06;4706902;28;106594;-90
2021/06/09 14:59:13;;;;;;;;;4.00;4.00;;;;;23.93;48.79;98552.75;4682812;28;102183;-91
2021/06/09 15:02:45;;;;;;;;;4.67;4.00;;;;;23.94;48.45;98549.72;4556054;28;103276;-91
2021/06/09 15:05:44;;;;;;;;;5.33;5.33;;;;;23.98;48.43;98534.22;4695008;28;101940;-90
2021/06/09 15:08:29;;;;;;;;;4.67;4.67;;;;;24.12;48.26;98552.88;4739068;28;106452;-89
2021/06/09 15:11:36;;;;;;;;;4.67;4.67;;;;;24.07;48.10;98536.34;4826030;28;103997;-89
2021/06/09 15:14:22;;;;;;;;;5.33;5.00;;;;;24.21;45.92;98546.47;4861053;28;102027;-87
2021/06/09 15:16:58;;;;;;;;;5.00;5.00;;;;;24.32;44.38;98558.22;4947506;28;103561;-86
2021/06/09 15:19:32;;;;;;;;;5.00;5.00;;;;;24.24;44.36;98547.81;4947559;28;102927;-87
2021/06/09 15:22:08;;;;;;;;;4.67;4.67;;;;;24.13;44.35;98529.66;4949988;28;102318;-87
2021/06/09 15:24:44;;;;;;;;;6.00;6.00;;;;;24.12;44.27;98522.50;4939574;28;102719;-87
2021/06/09 15:27:19;;;;;;;;;5.00;5.00;;;;;24.14;43.82;98536.81;4915547;28;102050;-87
2021/06/09 15:29:50;;;;;;;;;6.00;5.00;;;;;24.27;42.27;98561.88;4929077;28;106262;-87
2021/06/09 15:32:17;;;;;;;;;4.67;4.67;;;;;24.14;41.09;98539.59;4944808;28;102621;-87
2021/06/09 15:34:44;;;;;;;;;4.33;4.33;;;;;24.14;41.67;98537.66;4946446;28;102166;-87
2021/06/09 15:37:12;;;;;;;;;4.00;4.00;;;;;24.19;41.21;98548.69;4947593;28;102648;-87
2021/06/09 15:39:39;;;;;;;;;4.67;3.67;;;;;24.12;41.65;98544.59;4947518;28;103090;-87
2021/06/09 15:42:06;;;;;;;;;3.33;3.33;;;;;24.06;40.57;98532.75;4938849;28;102563;-87
2021/06/09 15:44:33;;;;;;;;;3.67;3.00;;;;;24.06;40.90;98538.28;4941282;28;102723;-86
2021/06/09 15:47:01;;;;;;;;;4.00;4.00;;;;;24.14;40.48;98537.66;4942884;28;102766;-86
2021/06/09 15:49:28;;;;;;;;;5.00;3.00;;;;;24.18;39.88;98549.00;4942878;28;103033;-86
2021/06/09 15:51:56;;;;;;;;;4.00;3.00;;;;;24.10;39.94;98533.00;4944754;28;102096;-86
2021/06/09 15:54:28;;;;;;;;;3.00;3.00;;;;;24.12;39.80;98545.41;4945184;28;102308;-86
2021/06/09 15:56:56;;;;;;;;;3.33;3.33;;;;;24.01;40.18;98530.84;4945259;28;102318;-87
2021/06/09 15:59:23;;;;;;;;;2.00;2.00;;;;;24.09;40.35;98536.88;4929281;28;103820;-87
2021/06/09 16:01:50;;;;;;;;;2.67;2.67;;;;;24.05;40.49;98555.13;4949163;28;102406;-86
2021/06/09 16:04:18;;;;;;;;;2.00;2.00;;;;;23.93;40.55;98523.19;4951038;28;102793;-85
2021/06/09 16:06:45;;;;;;;;;3.33;3.00;;;;;24.05;40.28;98538.56;4936920;28;102652;-89
2021/06/09 16:11:48;;;;;;;;;4.00;4.00;;;;;24.02;40.40;98535.28;5261639;22;102689;-87
2021/06/09 16:14:15;;;;;;;;;4.33;4.00;;;;;24.01;39.10;98522.56;4927950;28;102206;-86
2021/06/09 16:16:42;;;;;;;;;2.00;1.67;;;;;24.15;38.74;98532.94;4934847;28;102132;-86
2021/06/09 16:19:09;;;;;;;;;3.00;3.00;;;;;24.02;39.21;98521.47;4911925;28;103602;-86
2021/06/09 16:21:36;;;;;;;;;3.00;2.00;;;;;23.98;38.79;98517.63;4928401;28;102506;-86
2021/06/09 16:24:04;;;;;;;;;2.00;2.00;;;;;24.10;38.30;98527.47;4933973;28;102160;-88
2021/06/09 16:26:32;;;;;;;;;2.67;2.67;;;;;24.11;36.79;98531.88;4890138;28;104769;-85
2021/06/09 16:28:59;;;;;;;;;3.00;2.00;;;;;24.10;37.51;98533.81;4915742;28;103382;-85
2021/06/09 16:31:26;;;;;;;;;3.00;3.00;;;;;24.09;37.76;98520.31;4926240;28;102603;-86
2021/06/09 16:33:53;;;;;;;;;2.33;2.33;;;;;24.10;37.62;98530.22;4903427;28;102395;-85
2021/06/09 16:36:21;;;;;;;;;1.67;1.67;;;;;24.09;37.53;98523.06;4917352;28;103494;-86
2021/06/09 16:38:48;;;;;;;;;4.67;3.00;;;;;24.18;37.92;98543.47;4926314;28;103559;-85
2021/06/09 16:41:36;;;;;;;;;2.33;2.00;;;;;24.10;37.69;98520.00;4843815;28;102285;-88
2021/06/09 16:44:04;;;;;;;;;1.67;1.00;;;;;24.07;37.91;98517.84;4886637;28;102779;-86
2021/06/09 16:47:01;;;;;;;;;3.00;3.00;;;;;24.01;36.40;98522.56;4854964;28;103368;-88
2021/06/09 16:49:28;;;;;;;;;4.00;4.00;;;;;23.99;35.91;98512.94;4738621;28;105019;-89
2021/06/09 16:51:56;;;;;;;;;4.33;3.33;;;;;24.00;34.30;98531.97;4901732;28;102089;-89
2021/06/09 16:54:34;;;;;;;;;2.33;2.33;;;;;23.96;35.52;98539.19;4842028;28;102707;-93
2021/06/09 17:00:14;;;;;;;;;2.33;1.33;;;;;24.00;38.02;98531.97;4849948;28;109041;-89
2021/06/09 17:02:42;;;;;;;;;2.00;2.00;;;;;24.00;39.01;98534.72;4935409;28;102531;-90
2021/06/09 17:05:22;;;;;;;;;2.33;2.33;;;;;24.10;39.63;98557.84;4933838;28;102004;-90
2021/06/09 17:07:49;;;;;;;;;1.67;1.33;;;;;24.12;40.03;98555.63;4944766;28;102175;-87
2021/06/09 17:10:30;;;;;;;;;4.00;3.00;;;;;24.04;40.84;98553.50;4920057;28;103966;-90
2021/06/09 17:13:00;;;;;;;;;2.67;2.67;;;;;24.09;40.74;98565.31;4947280;28;102102;-89
2021/06/09 17:15:47;;;;;;;;;4.67;4.00;;;;;24.07;40.79;98561.22;4949770;28;101743;-91
2021/06/09 17:18:27;;;;;;;;;3.00;2.67;;;;;24.08;41.15;98565.63;4846442;28;101753;-90
2021/06/09 17:21:08;;;;;;;;;5.00;5.00;;;;;23.87;34.14;98564.94;4954346;28;104725;-90
2021/06/09 17:23:49;;;;;;;;;5.33;5.33;;;;;23.61;32.93;98560.72;4908964;28;102331;-90
2021/06/09 17:26:30;;;;;;;;;4.00;3.00;;;;;23.69;34.09;98566.47;4846346;28;102803;-87
2021/06/09 17:28:57;;;;;;;;;1.67;1.67;;;;;23.83;35.62;98563.88;4897554;28;102867;-87
2021/06/09 17:31:26;;;;;;;;;2.00;2.00;;;;;23.74;34.98;98554.56;4893129;28;104509;-84
2021/06/09 17:33:57;;;;;;;;;1.00;1.00;;;;;23.77;35.38;98546.53;4901361;28;103452;-87
2021/06/09 17:36:25;;;;;;;;;2.00;2.00;;;;;23.77;36.42;98549.31;4867579;28;102241;-87
2021/06/09 17:39:25;;;;;;;;;1.67;1.67;;;;;23.88;37.28;98569.38;4863621;28;102908;-86
2021/06/09 17:42:52;;;;;;;;;1.33;1.33;;;;;23.85;38.03;98562.50;4682170;28;103719;-87
2021/06/09 17:55:03;;;;;;;;;1.33;1.33;;;;;23.78;39.13;98586.00;4609695;26;102794;-86
2021/06/09 17:57:46;;;;;;;;;2.00;2.00;;;;;23.72;39.22;98584.41;4619678;28;102595;-90
2021/06/09 18:00:36;;;;;;;;;1.00;1.00;;;;;23.74;39.25;98584.94;4780518;28;101966;-89
2021/06/09 18:03:19;;;;;;;;;1.67;1.67;;;;;23.63;40.27;98561.28;4696182;28;102296;-87
2021/06/09 18:08:52;;;;;;;;;2.00;2.00;;;;;23.67;39.88;98581.69;5206548;22;104001;-86
2021/06/09 18:11:26;;;;;;;;;4.00;2.33;;;;;23.75;40.68;98597.63;4625075;28;102375;-87
2021/06/09 18:14:23;;;;;;;;;1.00;1.00;;;;;23.68;40.39;98573.13;4551254;28;104290;-86
2021/06/09 18:17:53;;;;;;;;;2.00;2.00;;;;;23.66;40.62;98575.31;4474652;29;106903;-86
2021/06/09 18:24:39;;;;;;;;;2.67;2.67;;;;;23.72;40.41;98585.25;4638923;28;102584;-87
2021/06/09 18:27:35;;;;;;;;;3.00;3.00;;;;;23.71;40.60;98578.06;4595729;28;102821;-86
2021/06/09 18:30:14;;;;;;;;;4.00;3.33;;;;;23.74;40.71;98582.16;4665411;28;107776;-86
2021/06/09 18:33:02;;;;;;;;;3.33;3.33;;;;;23.62;41.16;98562.38;4631319;28;104168;-86
2021/06/09 18:35:35;;;;;;;;;2.33;2.33;;;;;23.82;41.50;98584.34;4614636;28;102765;-84
2021/06/09 18:52:24;;;;;;;;;4.00;3.00;;;;;23.64;43.01;98585.81;4953320;27;102382;-89
2021/06/09 18:55:00;;;;;;;;;3.00;3.00;;;;;23.73;43.13;98606.19;4794543;27;102619;-90
2021/06/09 18:58:03;;;;;;;;;3.00;3.00;;;;;23.72;43.09;98607.31;4809094;27;104074;-86
2021/06/09 19:00:35;;;;;;;;;2.33;1.67;;;;;23.70;43.62;98615.06;4782329;28;102739;-89
2021/06/09 19:03:25;;;;;;;;;3.00;3.00;;;;;23.72;43.56;98621.13;4918546;27;102686;-91
2021/06/09 19:06:30;;;;;;;;;4.00;3.00;;;;;23.72;43.93;98621.13;4783752;28;102310;-90
2021/06/09 19:09:18;;;;;;;;;4.33;4.00;;;;;23.71;44.12;98625.00;4641579;28;107456;-91
2021/06/09 19:11:58;;;;;;;;;3.00;2.00;;;;;23.73;44.47;98630.25;4829315;28;102690;-90
2021/06/09 19:14:47;;;;;;;;;3.00;3.00;;;;;23.66;44.51;98627.78;4784955;27;104644;-90
2021/06/09 19:17:28;;;;;;;;;3.33;3.33;;;;;23.68;44.58;98633.84;4762582;28;103738;-88
2021/06/09 19:19:58;;;;;;;;;3.00;3.00;;;;;23.54;44.48;98611.56;4900991;28;105560;-89
2021/06/09 19:22:27;;;;;;;;;3.67;3.67;;;;;23.56;44.67;98619.56;4896199;27;104610;-89